createdAt,value
2019-04-20T00:01:12.193Z,9.50
2019-04-20T00:03:44.997Z,9.40
2019-04-20T00:06:13.184Z,9.40
2019-04-20T00:08:44.242Z,9.30
2019-04-20T00:11:24.859Z,9.30
2019-04-20T00:13:52.954Z,9.20
2019-04-20T00:16:16.844Z,9.20
2019-04-20T00:18:50.360Z,9.20
2019-04-20T00:21:19.701Z,9.20
2019-04-20T00:23:51.808Z,9.40
2019-04-20T00:26:52.224Z,9.50
2019-04-20T00:29:10.308Z,9.70
2019-04-20T00:31:40.290Z,9.90
2019-04-20T00:34:08.009Z,9.90
2019-04-20T00:36:29.078Z,10.00
2019-04-20T00:39:03.727Z,9.90
2019-04-20T00:41:34.278Z,9.90
2019-04-20T00:44:08.327Z,9.70
2019-04-20T00:46:41.942Z,9.50
2019-04-20T00:49:22.828Z,9.40
2019-04-20T00:51:51.105Z,9.30
2019-04-20T00:54:05.742Z,9.30
2019-04-20T00:56:35.438Z,9.40
2019-04-20T00:59:17.170Z,9.60
2019-04-20T01:01:52.296Z,9.60
2019-04-20T01:04:23.833Z,9.60
2019-04-20T01:06:53.894Z,9.60
2019-04-20T01:09:11.949Z,9.60
2019-04-20T01:11:45.173Z,9.50
2019-04-20T01:14:14.189Z,9.40
2019-04-20T01:16:49.178Z,9.30
2019-04-20T01:19:15.906Z,9.20
2019-04-20T01:21:52.579Z,9.20
2019-04-20T01:24:24.837Z,9.30
2019-04-20T01:26:53.356Z,9.20
2019-04-20T01:29:30.285Z,9.30
2019-04-20T01:32:05.776Z,9.20
2019-04-20T01:34:35.852Z,9.10
2019-04-20T01:37:09.514Z,9.10
2019-04-20T01:39:32.931Z,9.00
2019-04-20T01:41:56.113Z,8.90
2019-04-20T01:44:31.739Z,8.80
2019-04-20T01:47:00.099Z,8.80
2019-04-20T01:49:32.412Z,8.80
2019-04-20T01:52:11.939Z,8.70
2019-04-20T01:54:52.900Z,8.70
2019-04-20T01:57:13.878Z,8.70
2019-04-20T01:59:47.846Z,8.70
2019-04-20T02:02:15.226Z,8.50
2019-04-20T02:04:45.991Z,8.60
2019-04-20T02:07:17.304Z,8.50
2019-04-20T02:09:51.318Z,8.50
2019-04-20T02:12:23.627Z,8.50
2019-04-20T02:14:53.669Z,8.40
2019-04-20T02:17:27.920Z,8.30
2019-04-20T02:20:12.554Z,8.30
2019-04-20T02:22:38.565Z,8.30
2019-04-20T02:24:51.293Z,8.30
2019-04-20T02:27:31.334Z,8.10
2019-04-20T02:30:24.707Z,8.00
2019-04-20T02:33:00.389Z,8.00
2019-04-20T02:35:25.616Z,8.00
2019-04-20T02:40:46.736Z,8.00
2019-04-20T02:43:05.511Z,8.00
2019-04-20T02:45:42.273Z,8.00
2019-04-20T03:00:35.168Z,7.20
2019-04-20T03:02:55.922Z,7.00
2019-04-20T03:05:28.120Z,6.60
2019-04-20T03:08:04.337Z,6.30
2019-04-20T03:10:50.372Z,6.10
2019-04-20T03:13:08.800Z,6.00
2019-04-20T03:15:42.118Z,5.70
2019-04-20T03:18:13.899Z,5.50
2019-04-20T03:20:49.723Z,5.40
2019-04-20T03:25:49.543Z,5.20
2019-04-20T03:28:20.613Z,5.00
2019-04-20T03:31:33.147Z,4.80
2019-04-20T03:33:47.498Z,4.70
2019-04-20T03:36:07.875Z,4.50
2019-04-20T03:38:26.247Z,4.40
2019-04-20T03:40:48.324Z,4.30
2019-04-20T03:43:08.230Z,4.40
2019-04-20T03:45:48.406Z,4.30
2019-04-20T03:48:32.248Z,4.20
2019-04-20T03:53:38.183Z,4.20
2019-04-20T03:56:02.585Z,4.10
2019-04-20T03:58:37.643Z,4.10
2019-04-20T04:01:13.433Z,4.10
2019-04-20T04:06:10.504Z,3.90
2019-04-20T04:08:36.281Z,3.80
2019-04-20T04:11:23.118Z,3.80
2019-04-20T04:13:33.526Z,3.80
2019-04-20T04:16:07.882Z,3.80
2019-04-20T04:18:39.470Z,3.80
2019-04-20T04:21:09.940Z,3.90
2019-04-20T04:23:56.226Z,4.00
2019-04-20T04:26:29.215Z,4.00
2019-04-20T04:28:53.771Z,3.90
2019-04-20T04:31:33.373Z,3.80
2019-04-20T04:33:58.155Z,3.80
2019-04-20T04:36:29.001Z,3.80
2019-04-20T04:39:06.391Z,3.90
2019-04-20T04:41:32.048Z,4.00
2019-04-20T04:44:04.503Z,4.20
2019-04-20T04:46:18.501Z,4.30
2019-04-20T04:48:52.745Z,4.30
2019-04-20T04:51:27.398Z,4.30
2019-04-20T04:53:59.889Z,4.20
2019-04-20T04:56:26.406Z,4.20
2019-04-20T04:58:54.353Z,4.30
2019-04-20T05:01:28.606Z,4.40
2019-04-20T05:06:37.532Z,4.70
2019-04-20T05:09:00.823Z,5.00
2019-04-20T05:11:30.033Z,5.20
2019-04-20T05:14:04.113Z,5.30
2019-04-20T05:16:54.892Z,5.30
2019-04-20T05:19:26.178Z,5.40
2019-04-20T05:22:02.119Z,5.50
2019-04-20T05:24:26.863Z,5.70
2019-04-20T05:27:01.972Z,5.80
2019-04-20T05:29:18.009Z,5.90
2019-04-20T05:31:49.339Z,6.10
2019-04-20T05:34:38.969Z,6.30
2019-04-20T05:37:20.938Z,6.50
2019-04-20T05:39:56.257Z,6.80
2019-04-20T05:42:23.382Z,7.20
2019-04-20T05:44:55.716Z,7.60
2019-04-20T05:47:26.976Z,7.90
2019-04-20T05:49:53.816Z,8.30
2019-04-20T05:52:37.628Z,8.40
2019-04-20T05:55:04.122Z,8.60
2019-04-20T05:57:40.111Z,8.80
2019-04-20T06:00:21.807Z,8.90
2019-04-20T06:02:31.898Z,9.10
2019-04-20T06:07:35.849Z,9.40
2019-04-20T06:10:18.944Z,9.60
2019-04-20T06:12:37.349Z,9.70
2019-04-20T06:15:06.828Z,9.90
2019-04-20T06:17:44.452Z,10.10
2019-04-20T06:20:11.468Z,10.20
2019-04-20T06:22:50.571Z,10.30
2019-04-20T06:27:52.423Z,10.60
2019-04-20T06:30:15.719Z,10.80
2019-04-20T06:33:06.857Z,11.00
2019-04-20T06:35:47.907Z,11.20
2019-04-20T06:38:07.175Z,11.30
2019-04-20T06:40:52.445Z,11.40
2019-04-20T06:43:04.137Z,11.50
2019-04-20T06:45:33.316Z,11.60
2019-04-20T06:48:05.647Z,11.60
2019-04-20T06:50:33.003Z,11.70
2019-04-20T06:53:16.332Z,11.90
2019-04-20T06:55:42.969Z,12.00
2019-04-20T06:58:12.333Z,12.00
2019-04-20T07:00:44.470Z,12.00
2019-04-20T07:03:22.043Z,12.10
2019-04-20T07:05:43.939Z,12.20
2019-04-20T07:08:28.977Z,12.20
2019-04-20T07:10:53.148Z,12.30
2019-04-20T07:13:06.208Z,12.50
2019-04-20T07:15:45.146Z,12.60
2019-04-20T07:18:22.991Z,12.80
2019-04-20T07:21:07.249Z,12.80
2019-04-20T07:23:26.893Z,12.90
2019-04-20T07:25:56.962Z,13.00
2019-04-20T07:28:35.591Z,13.10
2019-04-20T07:30:55.376Z,13.10
2019-04-20T07:33:32.276Z,13.20
2019-04-20T07:36:05.907Z,13.30
2019-04-20T07:38:54.261Z,13.40
2019-04-20T07:41:23.749Z,13.40
2019-04-20T07:43:54.145Z,13.50
2019-04-20T07:46:25.839Z,13.70
2019-04-20T07:48:45.537Z,13.70
2019-04-20T07:51:05.864Z,13.80
2019-04-20T07:53:40.351Z,13.90
2019-04-20T07:56:17.744Z,14.00
2019-04-20T07:58:38.084Z,14.10
2019-04-20T08:01:30.239Z,14.20
2019-04-20T08:03:55.587Z,14.30
2019-04-20T08:06:14.478Z,14.50
2019-04-20T08:08:55.904Z,14.50
2019-04-20T08:11:32.084Z,14.60
2019-04-20T08:14:07.368Z,14.70
2019-04-20T08:16:42.375Z,14.80
2019-04-20T08:19:01.239Z,14.90
2019-04-20T08:21:35.123Z,15.10
2019-04-20T08:24:01.005Z,15.10
2019-04-20T08:26:23.509Z,15.20
2019-04-20T08:28:55.224Z,15.30
2019-04-20T08:31:37.095Z,15.40
2019-04-20T08:34:22.706Z,15.40
2019-04-20T08:36:45.450Z,15.60
2019-04-20T08:41:50.394Z,15.60
2019-04-20T08:44:44.170Z,15.80
2019-04-20T08:47:01.800Z,15.90
2019-04-20T08:49:27.715Z,16.00
2019-04-20T08:52:01.845Z,16.10
2019-04-20T08:54:23.768Z,16.20
2019-04-20T08:56:43.351Z,16.20
2019-04-20T08:59:06.751Z,16.30
2019-04-20T09:01:38.731Z,16.30
2019-04-20T09:04:17.761Z,16.40
2019-04-20T09:06:56.496Z,16.50
2019-04-20T09:09:41.375Z,16.60
2019-04-20T09:12:03.672Z,16.70
2019-04-20T09:14:18.568Z,16.80
2019-04-20T09:16:59.285Z,16.90
2019-04-20T09:19:29.953Z,17.00
2019-04-20T09:22:07.973Z,17.00
2019-04-20T09:24:56.287Z,17.00
2019-04-20T09:27:11.334Z,17.00
2019-04-20T09:29:40.736Z,17.00
2019-04-20T09:32:16.945Z,17.00
2019-04-20T09:34:55.780Z,17.20
2019-04-20T09:37:24.747Z,17.30
2019-04-20T09:40:02.411Z,17.30
2019-04-20T09:42:11.862Z,17.30
2019-04-20T09:44:46.036Z,17.50
2019-04-20T09:47:14.164Z,17.60
2019-04-20T09:49:55.059Z,17.60
2019-04-20T09:52:29.094Z,17.70
2019-04-20T09:55:04.309Z,17.80
2019-04-20T09:57:33.382Z,17.80
2019-04-20T10:00:05.703Z,17.80
2019-04-20T10:02:24.901Z,17.90
2019-04-20T10:04:53.260Z,18.00
2019-04-20T10:07:27.191Z,18.00
2019-04-20T10:09:53.838Z,18.10
2019-04-20T10:12:24.071Z,18.10
2019-04-20T10:14:58.499Z,18.20
2019-04-20T10:17:27.177Z,18.20
2019-04-20T10:19:57.672Z,18.30
2019-04-20T10:22:28.640Z,18.40
2019-04-20T10:24:58.390Z,18.30
2019-04-20T10:27:28.454Z,18.40
2019-04-20T10:30:00.741Z,18.50
2019-04-20T10:32:34.219Z,18.60
2019-04-20T10:34:59.932Z,18.70
2019-04-20T10:37:31.534Z,18.80
2019-04-20T10:40:02.772Z,18.90
2019-04-20T10:42:32.599Z,18.90
2019-04-20T10:45:02.884Z,18.80
2019-04-20T10:47:34.931Z,18.70
2019-04-20T10:50:07.110Z,18.80
2019-04-20T10:52:38.039Z,18.90
2019-04-20T10:55:10.254Z,19.00
2019-04-20T10:57:39.829Z,19.00
2019-04-20T11:00:11.333Z,19.00
2019-04-20T11:02:43.970Z,19.10
2019-04-20T11:05:12.773Z,19.00
2019-04-20T11:07:42.661Z,19.00
2019-04-20T11:10:18.477Z,19.00
2019-04-20T11:12:44.278Z,19.10
2019-04-20T11:15:14.607Z,19.10
2019-04-20T11:17:45.742Z,19.10
2019-04-20T11:20:15.429Z,19.20
2019-04-20T11:22:44.783Z,19.20
2019-04-20T11:25:14.491Z,19.30
2019-04-20T11:27:43.982Z,19.40
2019-04-20T11:30:14.125Z,19.50
2019-04-20T11:32:44.293Z,19.70
2019-04-20T11:35:23.244Z,19.90
2019-04-20T11:37:44.980Z,19.90
2019-04-20T11:40:15.004Z,19.90
2019-04-20T11:42:45.658Z,19.90
2019-04-20T11:45:15.608Z,19.80
2019-04-20T11:47:45.312Z,19.70
2019-04-20T11:50:15.620Z,19.70
2019-04-20T11:52:49.905Z,19.80
2019-04-20T11:55:20.194Z,19.80
2019-04-20T11:57:49.784Z,19.90
2019-04-20T12:00:23.528Z,19.90
2019-04-20T12:02:58.568Z,20.00
2019-04-20T12:05:35.630Z,20.00
2019-04-20T12:08:00.916Z,20.00
2019-04-20T12:10:31.527Z,20.00
2019-04-20T12:13:03.848Z,20.10
2019-04-20T12:15:36.511Z,20.30
2019-04-20T12:18:05.286Z,20.40
2019-04-20T12:20:36.571Z,20.40
2019-04-20T12:23:06.479Z,20.40
2019-04-20T12:25:40.858Z,20.40
2019-04-20T12:28:09.583Z,20.30
2019-04-20T12:30:39.751Z,20.30
2019-04-20T12:33:09.570Z,20.30
2019-04-20T12:35:40.353Z,20.20
2019-04-20T12:38:10.561Z,20.20
2019-04-20T12:40:41.944Z,20.20
2019-04-20T12:43:13.112Z,20.30
2019-04-20T12:45:44.045Z,20.30
2019-04-20T12:48:13.688Z,20.30
2019-04-20T12:50:43.774Z,20.30
2019-04-20T12:53:14.737Z,20.30
2019-04-20T12:55:44.550Z,20.30
2019-04-20T12:58:14.602Z,20.40
2019-04-20T13:00:49.293Z,20.40
2019-04-20T13:03:19.384Z,20.40
2019-04-20T13:05:50.039Z,20.40
2019-04-20T13:08:29.595Z,20.30
2019-04-20T13:10:52.770Z,20.30
2019-04-20T13:13:22.735Z,20.30
2019-04-20T13:15:52.305Z,20.30
2019-04-20T13:18:24.143Z,20.40
2019-04-20T13:20:57.872Z,20.50
2019-04-20T13:23:26.852Z,20.40
2019-04-20T13:25:57.124Z,20.40
2019-04-20T13:28:26.894Z,20.40
2019-04-20T13:30:57.858Z,20.40
2019-04-20T13:33:27.717Z,20.50
2019-04-20T13:35:58.485Z,20.60
2019-04-20T13:38:30.193Z,20.60
2019-04-20T13:40:59.889Z,20.60
2019-04-20T13:43:29.988Z,20.60
2019-04-20T13:46:00.774Z,20.60
2019-04-20T13:48:31.046Z,20.60
2019-04-20T13:51:02.365Z,20.60
2019-04-20T13:53:32.950Z,20.60
2019-04-20T13:56:02.538Z,20.60
2019-04-20T13:58:35.949Z,20.60
2019-04-20T14:01:08.509Z,20.60
2019-04-20T14:03:38.816Z,20.60
2019-04-20T14:06:09.018Z,20.60
2019-04-20T14:08:39.171Z,20.70
2019-04-20T14:11:09.447Z,20.60
2019-04-20T14:13:45.323Z,20.70
2019-04-20T14:16:14.262Z,20.70
2019-04-20T14:18:44.982Z,20.70
2019-04-20T14:21:14.640Z,20.80
2019-04-20T14:23:45.299Z,20.90
2019-04-20T14:26:15.048Z,20.80
2019-04-20T14:28:45.134Z,20.80
2019-04-20T14:31:16.164Z,20.80
2019-04-20T14:33:46.741Z,20.80
2019-04-20T14:36:17.478Z,20.80
2019-04-20T14:38:48.666Z,20.70
2019-04-20T14:41:19.888Z,20.70
2019-04-20T14:43:51.131Z,20.70
2019-04-20T14:46:21.022Z,20.70
2019-04-20T14:48:50.633Z,20.70
2019-04-20T14:51:19.946Z,20.60
2019-04-20T14:53:51.657Z,20.60
2019-04-20T14:56:20.995Z,20.60
2019-04-20T14:58:53.516Z,20.60
2019-04-20T15:01:24.852Z,20.70
2019-04-20T15:04:00.166Z,20.70
2019-04-20T15:06:25.517Z,20.60
2019-04-20T15:08:56.724Z,20.60
2019-04-20T15:11:27.109Z,20.50
2019-04-20T15:13:56.842Z,20.60
2019-04-20T15:16:26.578Z,20.60
2019-04-20T15:18:57.961Z,20.70
2019-04-20T15:21:29.439Z,20.70
2019-04-20T15:23:59.481Z,20.70
2019-04-20T15:26:29.097Z,20.70
2019-04-20T15:28:58.495Z,20.70
2019-04-20T15:31:28.254Z,20.70
2019-04-20T15:33:59.021Z,20.70
2019-04-20T15:36:29.359Z,20.70
2019-04-20T15:38:59.050Z,20.70
2019-04-20T15:41:29.392Z,20.70
2019-04-20T15:43:59.493Z,20.60
2019-04-20T15:46:31.344Z,20.60
2019-04-20T15:48:59.920Z,20.50
2019-04-20T15:51:29.985Z,20.60
2019-04-20T15:53:59.767Z,20.60
2019-04-20T15:56:29.376Z,20.60
2019-04-20T15:58:58.830Z,20.70
2019-04-20T16:01:30.284Z,21.20
2019-04-20T16:04:01.685Z,21.70
2019-04-20T16:06:32.654Z,22.10
2019-04-20T16:09:06.120Z,23.00
2019-04-20T16:11:37.015Z,23.80
2019-04-20T16:14:07.272Z,24.00
2019-04-20T16:16:37.352Z,23.90
2019-04-20T16:19:13.667Z,24.20
2019-04-20T16:21:39.674Z,24.30
2019-04-20T16:24:11.029Z,24.80
2019-04-20T16:26:42.250Z,25.20
2019-04-20T16:29:11.751Z,25.20
2019-04-20T16:31:43.937Z,25.70
2019-04-20T16:34:13.352Z,25.30
2019-04-20T16:36:44.484Z,25.20
2019-04-20T16:39:14.481Z,25.10
2019-04-20T16:41:44.465Z,24.80
2019-04-20T16:44:17.432Z,25.80
2019-04-20T16:46:45.886Z,25.70
2019-04-20T16:49:16.983Z,24.40
2019-04-20T16:51:47.119Z,23.80
2019-04-20T16:54:17.609Z,23.60
2019-04-20T16:56:48.557Z,24.20
2019-04-20T16:59:19.602Z,23.60
2019-04-20T17:01:50.530Z,23.20
2019-04-20T17:04:22.663Z,23.80
2019-04-20T17:06:53.959Z,24.50
2019-04-20T17:09:24.135Z,24.80
2019-04-20T17:11:54.015Z,24.10
2019-04-20T17:14:23.940Z,23.00
2019-04-20T17:16:53.929Z,22.10
2019-04-20T17:19:23.861Z,21.00
2019-04-20T17:21:57.062Z,20.20
2019-04-20T17:24:25.116Z,19.60
2019-04-20T17:26:57.046Z,19.10
2019-04-20T17:29:28.325Z,18.60
2019-04-20T17:31:58.079Z,18.30
2019-04-20T17:34:44.369Z,18.00
2019-04-20T17:36:58.471Z,17.70
2019-04-20T17:39:38.138Z,17.50
2019-04-20T17:42:12.818Z,17.20
2019-04-20T17:44:44.819Z,16.60
2019-04-20T17:47:24.930Z,16.00
2019-04-20T17:49:51.325Z,15.50
2019-04-20T17:52:28.022Z,14.90
2019-04-20T17:54:37.749Z,14.40
2019-04-20T17:57:09.294Z,14.00
2019-04-20T17:59:47.110Z,13.50
2019-04-20T18:02:25.545Z,13.30
2019-04-20T18:05:12.676Z,13.10
2019-04-20T18:07:41.239Z,13.00
2019-04-20T18:10:11.449Z,12.90
2019-04-20T18:12:31.355Z,12.70
2019-04-20T18:15:10.241Z,12.50
2019-04-20T18:17:40.363Z,12.20
2019-04-20T18:20:07.164Z,12.10
2019-04-20T18:22:44.192Z,11.90
2019-04-20T18:25:29.870Z,11.80
2019-04-20T18:28:01.228Z,11.60
2019-04-20T18:30:27.411Z,11.40
2019-04-20T18:32:47.385Z,11.20
2019-04-20T18:35:20.259Z,11.00
2019-04-20T18:37:53.617Z,10.80
2019-04-20T18:40:28.993Z,10.50
2019-04-20T18:43:01.742Z,10.40
2019-04-20T18:45:39.904Z,10.40
2019-04-20T18:48:11.657Z,10.20
2019-04-20T18:50:32.882Z,10.10
2019-04-20T18:52:57.727Z,10.00
2019-04-20T18:55:38.830Z,10.00
2019-04-20T18:57:59.380Z,10.00
2019-04-20T19:00:33.879Z,10.00
2019-04-20T19:03:09.643Z,9.90
2019-04-20T19:05:31.640Z,9.70
2019-04-20T19:08:05.298Z,9.70
2019-04-20T19:10:36.379Z,9.70
2019-04-20T19:13:08.125Z,9.60
2019-04-20T19:15:56.522Z,9.70
2019-04-20T19:18:23.822Z,9.70
2019-04-20T19:20:43.239Z,9.60
2019-04-20T19:23:12.803Z,9.50
2019-04-20T19:25:44.086Z,9.30
2019-04-20T19:28:14.450Z,9.40
2019-04-20T19:30:55.692Z,9.40
2019-04-20T19:33:30.936Z,9.40
2019-04-20T19:35:56.106Z,9.30
2019-04-20T19:38:23.870Z,9.30
2019-04-20T19:40:58.168Z,9.30
2019-04-20T19:43:28.786Z,9.30
2019-04-20T19:46:31.192Z,9.10
2019-04-20T19:48:36.878Z,9.00
2019-04-20T19:51:17.611Z,8.80
2019-04-20T19:53:48.829Z,8.60
2019-04-20T19:56:09.639Z,8.40
2019-04-20T19:58:39.810Z,8.30
2019-04-20T20:01:01.203Z,8.30
2019-04-20T20:03:30.298Z,8.30
2019-04-20T20:06:01.507Z,8.20
2019-04-20T20:08:35.805Z,8.30
2019-04-20T20:11:04.864Z,8.40
2019-04-20T20:13:42.999Z,8.40
2019-04-20T20:16:10.609Z,8.40
2019-04-20T20:18:52.148Z,8.50
2019-04-20T20:21:19.994Z,8.40
2019-04-20T20:23:38.354Z,8.40
2019-04-20T20:26:12.997Z,8.40
2019-04-20T20:28:45.593Z,8.40
2019-04-20T20:31:21.918Z,8.30
2019-04-20T20:33:54.652Z,8.30
2019-04-20T20:36:19.674Z,8.20
2019-04-20T20:38:50.281Z,8.10
2019-04-20T20:41:23.647Z,8.10
2019-04-20T20:43:56.546Z,8.00
2019-04-20T20:46:27.456Z,7.90
2019-04-20T20:49:12.051Z,7.80
2019-04-20T20:51:44.245Z,7.70
2019-04-20T20:53:59.028Z,7.60
2019-04-20T20:56:26.162Z,7.70
2019-04-20T20:59:00.531Z,7.60
2019-04-20T21:01:27.047Z,7.50
2019-04-20T21:03:54.757Z,7.60
2019-04-20T21:06:24.441Z,7.60
2019-04-20T21:08:56.648Z,7.50
2019-04-20T21:11:29.648Z,7.40
2019-04-20T21:13:57.532Z,7.30
2019-04-20T21:16:33.008Z,7.20
2019-04-20T21:19:15.909Z,7.20
2019-04-20T21:21:42.542Z,7.30
2019-04-20T21:24:07.547Z,7.40
2019-04-20T21:26:38.737Z,7.60
2019-04-20T21:29:04.075Z,7.70
2019-04-20T21:31:34.394Z,7.50
2019-04-20T21:34:08.632Z,7.30
2019-04-20T21:36:36.897Z,7.10
2019-04-20T21:39:16.288Z,6.90
2019-04-20T21:41:46.977Z,6.80
2019-04-20T21:44:18.163Z,6.70
2019-04-20T21:46:47.366Z,6.80
2019-04-20T21:49:26.357Z,6.80
2019-04-20T21:51:50.236Z,6.80
2019-04-20T21:54:15.991Z,6.80
2019-04-20T21:56:53.899Z,6.80
2019-04-20T21:59:24.428Z,6.90
2019-04-20T22:01:58.479Z,6.90
2019-04-20T22:04:21.577Z,6.90
2019-04-20T22:06:50.481Z,7.00
2019-04-20T22:09:20.373Z,7.10
2019-04-20T22:11:51.918Z,7.10
2019-04-20T22:14:24.954Z,7.00
2019-04-20T22:16:56.743Z,6.90
2019-04-20T22:19:34.293Z,6.80
2019-04-20T22:22:05.510Z,6.70
2019-04-20T22:24:42.151Z,6.70
2019-04-20T22:27:06.277Z,6.60
2019-04-20T22:29:30.112Z,6.70
2019-04-20T22:32:07.185Z,6.80
2019-04-20T22:34:31.900Z,6.90
2019-04-20T22:37:02.298Z,7.10
2019-04-20T22:39:41.329Z,7.10
2019-04-20T22:42:09.702Z,6.90
2019-04-20T22:44:36.963Z,6.50
2019-04-20T22:47:13.798Z,6.20
2019-04-20T22:49:50.273Z,5.90
2019-04-20T22:52:26.273Z,5.90
2019-04-20T22:54:55.228Z,5.90
2019-04-20T22:57:23.596Z,5.90
2019-04-20T22:59:52.364Z,6.00
2019-04-20T23:02:13.502Z,6.00
2019-04-20T23:04:44.591Z,6.10
2019-04-20T23:07:14.772Z,6.00
2019-04-20T23:09:50.438Z,5.90
2019-04-20T23:12:20.714Z,5.90
2019-04-20T23:14:46.777Z,6.00
2019-04-20T23:17:23.678Z,6.00
2019-04-20T23:19:52.856Z,6.00
2019-04-20T23:22:19.209Z,6.00
2019-04-20T23:24:49.261Z,5.90
2019-04-20T23:27:24.531Z,5.90
2019-04-20T23:29:51.047Z,6.00
2019-04-20T23:32:21.762Z,5.90
2019-04-20T23:34:57.730Z,5.90
2019-04-20T23:37:30.102Z,5.80
2019-04-20T23:39:54.810Z,5.80
2019-04-20T23:42:27.996Z,5.90
2019-04-20T23:45:00.367Z,5.90
2019-04-20T23:47:32.073Z,5.90
2019-04-20T23:50:16.330Z,5.90
2019-04-20T23:52:56.428Z,5.90
2019-04-20T23:55:09.817Z,6.00
2019-04-20T23:57:37.896Z,6.00
